Main page
METAR-TAF:

METAR-TAF

Airports :

Chandigarh International Airport

Chandigarh, India

latitude: 30-40-29N, longitude: 76-47-26E, elevation: 314 m

METAR: missing

Time: 13:32 (08:02 UTC)

Forecast

The report was made 10 hours and 32 minutes ago, at 21:30 UTC
Forecast valid from 20 at 00 UTC to 20 at 12 UTC
Wind 2 kt from variable directions
Visibility: 2000 m
Scattered clouds at a height of 10000 ft
Broken clouds at a height of 25000 ft
mist
Probability 30% :
Temporary
from 20 at 01 UTC to 20 at 03 UTC
Wind 5 kt from the South/Southeast
Visibility: 3000 m
haze
Becoming
from 20 at 07 UTC to 20 at 08 UTC
Wind 5 kt from the West/Southwest
Visibility: 5000 m
Few clouds at a height of 3000 ft
Scattered clouds at a height of 10000 ft
Broken clouds at a height of 25000 ft
haze

TAF: VICG 192130Z 2000/2012 VRB02KT 2000 BR SCT100 BKN250 PROB30 TEMPO 2001/2003 16005KT 3000 HZ BECMG 2007/2008 25005KT 5000 HZ FEW030 SCT100 BKN250

Weather observations and forecasts of more than 4000 airports (METAR and TAF reports).

The available stations are represented by yellow and red dots on the map.

Hover mouse over dot to see the name of the station.

Then click to see weather observations and forecasts.

To change the map : click on the green buttons with a black cross to zoom in, on the green button with a dash to zoom out, or on the green arrows for adjacent maps.


METAR-TAF: